Time;durP1;ratioP1;P1;durP2;ratioP2;P2;SDS_P1;SDS_P2;PMS_P1;PMS_P2;Temp;Humidity;BMP_temperature;BMP_pressure;BME280_temperature;BME280_humidity;BME280_pressure;Samples;Min_cycle;Max_cycle;Signal;HPM_P1;HPM_P2
2022/11/01 00:01:51;;;;;;;;;;;;;;;12.73;100.00;100477.44;4423927;32;34003;-83
2022/11/01 00:04:41;;;;;;;;;;;;;;;12.52;100.00;100477.84;4435415;32;34333;-84
2022/11/01 00:07:27;;;;;;;;;;;;;;;12.68;100.00;100472.03;4448641;32;34689;-84
2022/11/01 00:10:14;;;;;;;;;;;;;;;12.69;100.00;100462.66;4448015;32;35911;-84
2022/11/01 00:12:59;;;;;;;;;;;;;;;12.82;100.00;100459.09;4448913;32;34845;-84
2022/11/01 00:15:46;;;;;;;;;;;;;;;12.53;100.00;100475.91;4447637;32;35035;-84
2022/11/01 00:18:33;;;;;;;;;;;;;;;12.19;100.00;100457.00;4456352;32;35256;-84
2022/11/01 00:21:19;;;;;;;;;;;;;;;12.78;100.00;100464.41;4440646;32;35662;-85
2022/11/01 00:24:05;;;;;;;;;;;;;;;12.78;100.00;100469.09;4452610;32;33741;-84
2022/11/01 00:26:52;;;;;;;;;;;;;;;12.47;100.00;100468.88;4464581;32;34685;-84
2022/11/01 00:29:41;;;;;;;;;;;;;;;12.90;100.00;100465.84;4464178;32;35191;-83
2022/11/01 00:32:28;;;;;;;;;;;;;;;13.00;100.00;100462.84;4462920;32;34785;-84
2022/11/01 00:35:15;;;;;;;;;;;;;;;12.60;100.00;100466.12;4453473;32;34827;-84
2022/11/01 00:38:01;;;;;;;;;;;;;;;12.16;100.00;100461.16;4453565;32;35644;-84
2022/11/01 00:40:49;;;;;;;;;;;;;;;12.49;100.00;100461.13;4437465;32;36045;-84
2022/11/01 00:43:36;;;;;;;;;;;;;;;12.41;100.00;100464.56;4464502;32;34578;-84
2022/11/01 00:46:22;;;;;;;;;;;;;;;12.23;100.00;100458.03;4451786;32;34612;-85
2022/11/01 00:49:08;;;;;;;;;;;;;;;12.71;100.00;100455.75;4453057;32;35056;-84
2022/11/01 00:51:55;;;;;;;;;;;;;;;12.80;100.00;100458.59;4464128;32;35264;-85
2022/11/01 00:54:42;;;;;;;;;;;;;;;12.56;100.00;100456.03;4465212;32;34957;-85
2022/11/01 00:57:29;;;;;;;;;;;;;;;12.65;100.00;100443.22;4454186;32;34798;-85
2022/11/01 01:00:15;;;;;;;;;;;;;;;12.97;100.00;100442.28;4465312;32;35516;-85
2022/11/01 01:03:01;;;;;;;;;;;;;;;13.03;100.00;100432.81;4465469;32;35147;-85
2022/11/01 01:05:51;;;;;;;;;;;;;;;12.20;100.00;100431.16;4464610;32;35184;-85
2022/11/01 01:08:36;;;;;;;;;;;;;;;12.76;100.00;100428.16;4440794;32;34372;-85
2022/11/01 01:11:23;;;;;;;;;;;;;;;12.95;100.00;100433.53;4454813;32;35816;-85
2022/11/01 01:14:09;;;;;;;;;;;;;;;12.88;100.00;100433.13;4465953;32;34842;-85
2022/11/01 01:16:55;;;;;;;;;;;;;;;12.67;100.00;100423.69;4454478;32;34529;-85
2022/11/01 01:19:42;;;;;;;;;;;;;;;12.60;100.00;100430.37;4463399;32;34114;-85
2022/11/01 01:22:29;;;;;;;;;;;;;;;12.40;100.00;100407.97;4464464;32;35107;-85
2022/11/01 01:25:15;;;;;;;;;;;;;;;12.65;100.00;100401.16;4463874;32;35103;-85
2022/11/01 01:28:01;;;;;;;;;;;;;;;12.31;100.00;100410.63;4442244;32;35661;-84
2022/11/01 01:30:58;;;;;;;;;;;;;;;12.63;100.00;100417.97;4462895;32;34184;-84
2022/11/01 01:33:45;;;;;;;;;;;;;;;12.58;100.00;100413.41;4465279;32;34554;-84
2022/11/01 01:36:31;;;;;;;;;;;;;;;12.44;100.00;100420.81;4465547;32;35171;-83
2022/11/01 01:39:18;;;;;;;;;;;;;;;12.33;100.00;100411.13;4463640;32;34581;-85
2022/11/01 01:42:12;;;;;;;;;;;;;;;12.15;100.00;100405.41;4463648;32;34123;-84
2022/11/01 01:44:59;;;;;;;;;;;;;;;12.06;100.00;100409.97;4464527;32;35897;-85
2022/11/01 01:47:48;;;;;;;;;;;;;;;11.91;100.00;100413.78;4461617;32;35169;-85
2022/11/01 01:50:43;;;;;;;;;;;;;;;12.45;100.00;100411.44;4452357;32;34606;-85
2022/11/01 01:53:31;;;;;;;;;;;;;;;12.39;100.00;100409.91;4453145;32;33747;-85
2022/11/01 01:56:18;;;;;;;;;;;;;;;12.69;100.00;100400.22;4452790;32;34973;-85
2022/11/01 01:59:06;;;;;;;;;;;;;;;12.55;100.00;100393.91;4453177;32;33896;-86
2022/11/01 02:01:52;;;;;;;;;;;;;;;12.65;100.00;100399.22;4450806;32;35854;-83
2022/11/01 02:04:50;;;;;;;;;;;;;;;12.58;100.00;100405.16;4461306;32;34369;-84
2022/11/01 02:07:36;;;;;;;;;;;;;;;12.26;100.00;100407.97;4463352;32;34419;-85
2022/11/01 02:10:22;;;;;;;;;;;;;;;12.26;100.00;100407.97;4452001;32;34806;-85
2022/11/01 02:13:14;;;;;;;;;;;;;;;12.07;100.00;100395.12;4453197;32;33655;-85
2022/11/01 02:16:04;;;;;;;;;;;;;;;12.20;100.00;100387.19;4452413;32;33674;-84
2022/11/01 02:19:09;;;;;;;;;;;;;;;12.69;100.00;100393.91;4452469;32;34519;-84
2022/11/01 02:22:02;;;;;;;;;;;;;;;12.42;100.00;100392.81;4463637;32;35151;-84
2022/11/01 02:24:49;;;;;;;;;;;;;;;12.70;100.00;100395.56;4460746;32;34945;-84
2022/11/01 02:27:51;;;;;;;;;;;;;;;12.49;100.00;100389.66;4463696;32;34054;-85
2022/11/01 02:30:57;;;;;;;;;;;;;;;11.96;100.00;100396.44;4453135;32;34784;-84
2022/11/01 02:33:44;;;;;;;;;;;;;;;12.41;100.00;100382.13;4464308;32;35289;-84
2022/11/01 02:36:33;;;;;;;;;;;;;;;12.36;100.00;100377.56;4449318;32;34493;-86
2022/11/01 02:39:21;;;;;;;;;;;;;;;12.19;100.00;100360.84;4452742;32;33560;-84
2022/11/01 02:42:14;;;;;;;;;;;;;;;12.41;100.00;100365.63;4441635;32;35302;-85
2022/11/01 02:45:04;;;;;;;;;;;;;;;12.23;100.00;100364.59;4451628;32;35224;-83
2022/11/01 02:47:53;;;;;;;;;;;;;;;12.20;100.00;100360.53;4452523;32;34820;-84
2022/11/01 02:50:44;;;;;;;;;;;;;;;12.23;100.00;100370.09;4451835;32;32976;-85
2022/11/01 02:53:30;;;;;;;;;;;;;;;12.26;100.00;100364.81;4450846;32;35239;-85
2022/11/01 02:56:18;;;;;;;;;;;;;;;12.38;100.00;100367.06;4463856;32;35231;-84
2022/11/01 02:59:05;;;;;;;;;;;;;;;12.55;100.00;100363.69;4463784;32;34971;-84
2022/11/01 03:02:05;;;;;;;;;;;;;;;12.33;100.00;100375.41;4451230;32;35060;-84
2022/11/01 03:04:52;;;;;;;;;;;;;;;11.90;100.00;100372.91;4450852;32;35126;-84
2022/11/01 03:07:38;;;;;;;;;;;;;;;12.12;100.00;100366.72;4449135;32;35129;-84
2022/11/01 03:10:27;;;;;;;;;;;;;;;12.40;100.00;100375.00;4451299;32;35669;-84
2022/11/01 03:13:26;;;;;;;;;;;;;;;12.54;100.00;100381.31;4452006;32;34135;-84
2022/11/01 03:16:18;;;;;;;;;;;;;;;12.40;100.00;100386.00;4462967;32;35702;-85
2022/11/01 03:19:18;;;;;;;;;;;;;;;12.86;100.00;100376.78;4454025;32;34665;-86
2022/11/01 03:22:04;;;;;;;;;;;;;;;12.30;100.00;100370.53;4454120;32;34826;-84
2022/11/01 03:24:52;;;;;;;;;;;;;;;12.08;100.00;100363.78;4465199;32;34677;-85
2022/11/01 03:27:39;;;;;;;;;;;;;;;12.11;100.00;100374.16;4454139;32;35788;-85
2022/11/01 03:30:26;;;;;;;;;;;;;;;12.09;100.00;100378.31;4452966;32;35379;-84
2022/11/01 03:33:13;;;;;;;;;;;;;;;12.36;100.00;100369.31;4451513;32;34474;-84
2022/11/01 03:36:03;;;;;;;;;;;;;;;12.24;100.00;100379.97;4453999;32;37454;-85
2022/11/01 03:38:53;;;;;;;;;;;;;;;11.73;100.00;100380.88;4453520;32;34966;-84
2022/11/01 03:41:41;;;;;;;;;;;;;;;12.56;100.00;100374.38;4453632;32;35302;-85
2022/11/01 03:44:29;;;;;;;;;;;;;;;12.19;100.00;100377.34;4454518;32;34823;-86
2022/11/01 03:47:15;;;;;;;;;;;;;;;12.71;100.00;100372.44;4465275;32;34052;-85
2022/11/01 03:50:15;;;;;;;;;;;;;;;12.57;100.00;100370.50;4465580;32;35038;-85
2022/11/01 03:53:02;;;;;;;;;;;;;;;12.11;100.00;100374.16;4463923;32;35307;-85
2022/11/01 03:55:47;;;;;;;;;;;;;;;12.46;100.00;100373.78;4443093;32;35885;-86
2022/11/01 03:58:41;;;;;;;;;;;;;;;11.62;100.00;100372.81;4465221;32;34263;-86
2022/11/01 04:01:27;;;;;;;;;;;;;;;12.09;100.00;100370.91;4454774;32;34939;-86
2022/11/01 04:04:13;;;;;;;;;;;;;;;12.52;100.00;100359.63;4454260;32;36253;-85
2022/11/01 04:06:59;;;;;;;;;;;;;;;11.89;100.00;100354.78;4443969;32;34924;-85
2022/11/01 04:09:46;;;;;;;;;;;;;;;11.66;100.00;100357.34;4453846;32;35390;-85
2022/11/01 04:12:32;;;;;;;;;;;;;;;12.39;100.00;100352.22;4465493;32;35841;-84
2022/11/01 04:21:32;;;;;;;;;;;;;;;11.79;100.00;100343.97;4465615;32;34186;-85
2022/11/01 04:24:20;;;;;;;;;;;;;;;11.76;100.00;100341.84;4464638;32;34475;-86
2022/11/01 04:27:06;;;;;;;;;;;;;;;12.10;100.00;100344.25;4464869;32;36133;-84
2022/11/01 04:29:53;;;;;;;;;;;;;;;11.87;100.00;100348.81;4464959;32;34938;-85
2022/11/01 04:32:43;;;;;;;;;;;;;;;12.03;100.00;100344.66;4453172;32;34153;-85
2022/11/01 04:35:30;;;;;;;;;;;;;;;12.18;100.00;100350.97;4465399;32;35495;-85
2022/11/01 04:38:17;;;;;;;;;;;;;;;12.06;100.00;100351.47;4453625;32;35250;-85
2022/11/01 04:41:11;;;;;;;;;;;;;;;12.13;100.00;100349.16;4465594;32;33310;-85
2022/11/01 04:43:58;;;;;;;;;;;;;;;12.37;100.00;100351.69;4452736;32;34137;-85
2022/11/01 04:46:44;;;;;;;;;;;;;;;12.71;100.00;100342.19;4452728;32;34886;-85
2022/11/01 04:49:30;;;;;;;;;;;;;;;12.88;100.00;100344.31;4453465;32;34828;-85
2022/11/01 04:52:16;;;;;;;;;;;;;;;12.35;100.00;100345.69;4464609;32;35839;-85
2022/11/01 04:55:03;;;;;;;;;;;;;;;12.69;100.00;100344.44;4441999;32;34340;-86
2022/11/01 04:57:49;;;;;;;;;;;;;;;12.71;100.00;100348.50;4452257;32;35862;-85
2022/11/01 05:00:36;;;;;;;;;;;;;;;12.64;100.00;100358.31;4451848;32;35263;-85
2022/11/01 05:03:22;;;;;;;;;;;;;;;12.70;100.00;100355.13;4465950;32;35595;-85
2022/11/01 05:06:09;;;;;;;;;;;;;;;11.99;100.00;100353.81;4465149;32;34915;-85
2022/11/01 05:08:55;;;;;;;;;;;;;;;12.23;100.00;100353.62;4446509;32;35282;-86
2022/11/01 05:11:41;;;;;;;;;;;;;;;11.91;100.00;100349.81;4452543;32;36208;-85
2022/11/01 05:14:28;;;;;;;;;;;;;;;12.12;100.00;100348.34;4452307;32;35673;-85
2022/11/01 05:17:15;;;;;;;;;;;;;;;12.08;100.00;100347.31;4440913;32;33567;-85
2022/11/01 05:20:03;;;;;;;;;;;;;;;12.15;100.00;100347.72;4437056;32;35820;-85
2022/11/01 05:22:51;;;;;;;;;;;;;;;11.81;100.00;100347.22;4447930;32;36068;-85
2022/11/01 05:25:39;;;;;;;;;;;;;;;11.76;100.00;100339.91;4448069;32;35443;-85
2022/11/01 05:28:26;;;;;;;;;;;;;;;12.24;100.00;100344.25;4446595;32;33953;-85
2022/11/01 05:31:12;;;;;;;;;;;;;;;11.98;100.00;100333.78;4437721;32;35786;-85
2022/11/01 05:33:59;;;;;;;;;;;;;;;11.91;100.00;100333.34;4449587;32;36235;-85
2022/11/01 05:36:48;;;;;;;;;;;;;;;11.83;100.00;100334.00;4449699;32;34899;-85
2022/11/01 05:39:37;;;;;;;;;;;;;;;11.80;100.00;100340.91;4447920;32;34165;-85
2022/11/01 05:42:23;;;;;;;;;;;;;;;11.66;100.00;100354.59;4447662;32;34925;-85
2022/11/01 05:45:10;;;;;;;;;;;;;;;12.46;100.00;100349.84;4447988;32;35454;-84
2022/11/01 05:48:03;;;;;;;;;;;;;;;11.87;100.00;100346.88;4436403;32;35644;-85
2022/11/01 05:50:51;;;;;;;;;;;;;;;12.13;100.00;100347.22;4437049;32;33894;-86
2022/11/01 05:53:45;;;;;;;;;;;;;;;11.88;100.00;100348.50;4447446;32;35855;-85
2022/11/01 05:56:45;;;;;;;;;;;;;;;12.42;100.00;100348.84;4447825;32;35104;-84
2022/11/01 05:59:31;;;;;;;;;;;;;;;11.90;100.00;100345.47;4437848;32;34908;-85
2022/11/01 06:02:18;;;;;;;;;;;;;;;12.05;100.00;100344.34;4434939;32;34917;-86
2022/11/01 06:05:06;;;;;;;;;;;;;;;11.89;100.00;100357.53;4448394;32;34557;-84
2022/11/01 06:07:56;;;;;;;;;;;;;;;11.86;100.00;100363.63;4437712;32;35133;-85
2022/11/01 06:10:44;;;;;;;;;;;;;;;11.60;100.00;100358.56;4435835;32;35694;-85
2022/11/01 06:13:31;;;;;;;;;;;;;;;11.75;100.00;100367.66;4449728;32;35071;-85
2022/11/01 06:16:22;;;;;;;;;;;;;;;11.77;100.00;100365.41;4391798;32;1115710;-85
2022/11/01 06:19:12;;;;;;;;;;;;;;;12.35;100.00;100368.50;4458952;32;35305;-85
2022/11/01 06:22:01;;;;;;;;;;;;;;;12.09;100.00;100359.91;4464263;32;34537;-84
2022/11/01 06:24:48;;;;;;;;;;;;;;;12.12;100.00;100363.97;4452599;32;32959;-85
2022/11/01 06:27:40;;;;;;;;;;;;;;;12.14;100.00;100359.81;4464579;32;34931;-85
2022/11/01 06:30:30;;;;;;;;;;;;;;;11.49;100.00;100362.59;4463438;32;35828;-85
2022/11/01 06:33:27;;;;;;;;;;;;;;;11.53;100.00;100360.88;4452055;32;34867;-85
2022/11/01 06:36:17;;;;;;;;;;;;;;;12.37;100.00;100358.00;4463446;32;33237;-85
2022/11/01 06:39:07;;;;;;;;;;;;;;;12.13;100.00;100355.44;4463472;32;35610;-85
2022/11/01 06:41:53;;;;;;;;;;;;;;;11.87;100.00;100365.28;4464514;32;34697;-85
2022/11/01 06:44:41;;;;;;;;;;;;;;;12.33;100.00;100364.41;4453010;32;34562;-85
2022/11/01 06:47:36;;;;;;;;;;;;;;;12.52;100.00;100372.53;4452861;32;35664;-85
2022/11/01 06:50:24;;;;;;;;;;;;;;;12.00;100.00;100371.91;4462586;32;35614;-85
2022/11/01 06:53:12;;;;;;;;;;;;;;;11.82;100.00;100376.31;4466377;32;35225;-86
2022/11/01 06:56:02;;;;;;;;;;;;;;;11.94;100.00;100379.44;4466089;32;35398;-85
2022/11/01 06:58:49;;;;;;;;;;;;;;;11.91;100.00;100377.28;4452024;32;34484;-86
2022/11/01 07:01:36;;;;;;;;;;;;;;;12.16;100.00;100373.25;4451860;32;34534;-85
2022/11/01 07:04:28;;;;;;;;;;;;;;;11.97;100.00;100378.81;4466234;32;35246;-85
2022/11/01 07:10:16;;;;;;;;;;;;;;;12.52;100.00;100378.03;4455563;32;34103;-85
2022/11/01 07:16:06;;;;;;;;;;;;;;;12.05;100.00;100383.63;4455946;32;36145;-84
2022/11/01 07:19:00;;;;;;;;;;;;;;;12.20;100.00;100384.44;4452968;32;35209;-84
2022/11/01 07:22:04;;;;;;;;;;;;;;;11.88;100.00;100389.69;4454285;32;33655;-85
2022/11/01 07:24:53;;;;;;;;;;;;;;;12.24;100.00;100377.22;4453772;32;35790;-85
2022/11/01 07:27:39;;;;;;;;;;;;;;;12.35;100.00;100381.41;4454126;32;36210;-85
2022/11/01 07:30:26;;;;;;;;;;;;;;;12.37;100.00;100381.91;4452305;32;34918;-83
2022/11/01 07:33:23;;;;;;;;;;;;;;;11.99;100.00;100389.50;4465469;32;34094;-85
2022/11/01 07:36:15;;;;;;;;;;;;;;;12.51;100.00;100388.22;4462585;32;35740;-85
2022/11/01 07:39:15;;;;;;;;;;;;;;;11.85;100.00;100381.22;4465117;32;35119;-85
2022/11/01 07:42:04;;;;;;;;;;;;;;;12.06;100.00;100387.97;4453174;32;35128;-84
2022/11/01 07:44:52;;;;;;;;;;;;;;;12.01;100.00;100401.84;4453778;32;34813;-85
2022/11/01 07:47:42;;;;;;;;;;;;;;;12.32;100.00;100393.00;4465639;32;33771;-85
2022/11/01 07:50:39;;;;;;;;;;;;;;;12.32;100.00;100395.75;4443798;32;34799;-85
2022/11/01 07:53:34;;;;;;;;;;;;;;;12.56;100.00;100393.63;4475751;31;34843;-84
2022/11/01 07:56:22;;;;;;;;;;;;;;;12.19;100.00;100399.31;4468721;32;33770;-85
2022/11/01 07:59:10;;;;;;;;;;;;;;;12.74;100.00;100393.81;4481135;32;35500;-83
2022/11/01 08:01:57;;;;;;;;;;;;;;;12.81;100.00;100391.50;4467793;31;35961;-85
2022/11/01 08:04:56;;;;;;;;;;;;;;;12.88;100.00;100388.31;4467399;31;34947;-86
2022/11/01 08:07:45;;;;;;;;;;;;;;;12.99;100.00;100374.03;4460690;31;33692;-86
2022/11/01 08:10:36;;;;;;;;;;;;;;;12.94;100.00;100379.63;4457000;32;33627;-85
2022/11/01 08:13:25;;;;;;;;;;;;;;;12.62;100.00;100377.03;4461907;31;33530;-86
2022/11/01 08:16:21;;;;;;;;;;;;;;;12.30;100.00;100387.03;4465512;31;36296;-86
2022/11/01 08:19:10;;;;;;;;;;;;;;;12.22;100.00;100372.03;4449467;32;34073;-86
2022/11/01 08:22:04;;;;;;;;;;;;;;;12.33;100.00;100378.16;4455710;32;35284;-86
2022/11/01 08:24:53;;;;;;;;;;;;;;;12.70;100.00;100377.13;4441114;32;35171;-85
2022/11/01 08:27:48;;;;;;;;;;;;;;;12.74;100.00;100377.31;4440530;32;34036;-86
2022/11/01 08:33:44;;;;;;;;;;;;;;;12.56;100.00;100370.84;4447884;32;35517;-86
2022/11/01 08:36:38;;;;;;;;;;;;;;;12.47;100.00;100376.22;4448652;32;33445;-86
2022/11/01 08:39:36;;;;;;;;;;;;;;;13.01;100.00;100391.03;4448775;32;34785;-85
2022/11/01 08:42:28;;;;;;;;;;;;;;;12.63;100.00;100379.47;4449685;32;34288;-86
2022/11/01 08:45:19;;;;;;;;;;;;;;;13.03;100.00;100383.31;4449686;32;35710;-86
2022/11/01 08:48:07;;;;;;;;;;;;;;;13.28;100.00;100389.37;4450354;32;35285;-86
2022/11/01 08:50:58;;;;;;;;;;;;;;;12.40;100.00;100377.75;4442755;32;34641;-86
2022/11/01 08:53:46;;;;;;;;;;;;;;;12.88;100.00;100380.88;4448918;32;34091;-86
2022/11/01 08:56:40;;;;;;;;;;;;;;;12.80;100.00;100381.59;4449019;32;34910;-86
2022/11/01 08:59:30;;;;;;;;;;;;;;;12.45;100.00;100383.16;4445828;32;34905;-86
2022/11/01 09:02:25;;;;;;;;;;;;;;;12.87;100.00;100379.25;4439523;32;35415;-86
2022/11/01 09:05:16;;;;;;;;;;;;;;;12.83;100.00;100376.31;4451622;32;33587;-86
2022/11/01 09:08:07;;;;;;;;;;;;;;;12.99;100.00;100381.47;4451027;32;33267;-86
2022/11/01 09:10:59;;;;;;;;;;;;;;;12.52;100.00;100378.88;4450813;32;36126;-87
2022/11/01 09:13:48;;;;;;;;;;;;;;;12.34;100.00;100377.03;4448578;32;35771;-86
2022/11/01 09:16:45;;;;;;;;;;;;;;;12.45;100.00;100375.72;4440622;32;34147;-86
2022/11/01 09:19:31;;;;;;;;;;;;;;;12.93;100.00;100378.00;4432394;32;34326;-86
2022/11/01 09:22:19;;;;;;;;;;;;;;;13.16;100.00;100373.38;4448851;32;33698;-85
2022/11/01 09:25:07;;;;;;;;;;;;;;;13.20;100.00;100371.63;4448223;32;35727;-86
2022/11/01 09:28:03;;;;;;;;;;;;;;;13.31;100.00;100372.22;4441030;32;33612;-86
2022/11/01 09:30:53;;;;;;;;;;;;;;;13.07;100.00;100368.94;4448202;32;34721;-86
2022/11/01 09:34:03;;;;;;;;;;;;;;;13.06;100.00;100368.09;4428725;32;33859;-86
2022/11/01 09:36:54;;;;;;;;;;;;;;;12.71;100.00;100372.44;4439531;32;35122;-85
2022/11/01 09:39:43;;;;;;;;;;;;;;;12.78;100.00;100370.09;4448859;32;35446;-86
2022/11/01 09:48:31;;;;;;;;;;;;;;;13.17;100.00;100371.44;4437408;32;35882;-85
2022/11/01 09:51:22;;;;;;;;;;;;;;;12.81;100.00;100364.00;4448101;32;33877;-86
2022/11/01 09:54:14;;;;;;;;;;;;;;;13.27;100.00;100371.22;4446263;32;34975;-85
2022/11/01 09:57:21;;;;;;;;;;;;;;;13.16;100.00;100365.13;4447458;32;34530;-85
2022/11/01 10:00:15;;;;;;;;;;;;;;;13.18;100.00;100362.87;4437934;32;35680;-85
2022/11/01 10:03:08;;;;;;;;;;;;;;;13.66;100.00;100366.97;4429084;32;33880;-85
2022/11/01 10:09:40;;;;;;;;;;;;;;;13.22;100.00;100366.63;4438601;32;34729;-85
2022/11/01 10:12:37;;;;;;;;;;;;;;;13.22;100.00;100357.56;4437786;32;33846;-84
2022/11/01 10:18:51;;;;;;;;;;;;;;;13.58;100.00;100346.53;4446341;32;34927;-85
2022/11/01 10:21:49;;;;;;;;;;;;;;;13.74;100.00;100346.94;4447493;32;35119;-84
2022/11/01 10:24:41;;;;;;;;;;;;;;;13.51;100.00;100348.91;4453763;32;34872;-85
2022/11/01 10:27:36;;;;;;;;;;;;;;;13.52;100.00;100346.94;4446613;32;34108;-84
2022/11/01 10:30:28;;;;;;;;;;;;;;;13.24;100.00;100349.81;4440290;32;34405;-84
2022/11/01 10:33:29;;;;;;;;;;;;;;;13.42;100.00;100348.84;4443926;32;35150;-84
2022/11/01 10:36:38;;;;;;;;;;;;;;;13.20;100.00;100351.53;4443423;32;35676;-85
2022/11/01 10:39:54;;;;;;;;;;;;;;;13.11;100.00;100348.72;4446307;32;34300;-84
2022/11/01 10:42:49;;;;;;;;;;;;;;;13.21;100.00;100344.94;4462680;32;35012;-84
2022/11/01 10:45:43;;;;;;;;;;;;;;;12.97;100.00;100350.69;4450886;32;35052;-85
2022/11/01 10:48:38;;;;;;;;;;;;;;;12.84;100.00;100352.37;4462563;32;33744;-84
2022/11/01 10:51:26;;;;;;;;;;;;;;;12.59;100.00;100349.03;4452131;32;33024;-84
2022/11/01 10:54:26;;;;;;;;;;;;;;;13.31;100.00;100346.66;4463598;32;34938;-85
2022/11/01 10:57:20;;;;;;;;;;;;;;;12.93;100.00;100350.50;4451178;32;36036;-84
2022/11/01 11:00:17;;;;;;;;;;;;;;;12.77;100.00;100341.78;4442708;32;34421;-84
2022/11/01 11:03:14;;;;;;;;;;;;;;;12.80;100.00;100340.34;4450270;32;34011;-86
2022/11/01 11:06:14;;;;;;;;;;;;;;;13.40;100.00;100336.50;4458979;32;34683;-84
2022/11/01 11:09:03;;;;;;;;;;;;;;;13.33;100.00;100341.66;4450830;32;35269;-84
2022/11/01 11:11:50;;;;;;;;;;;;;;;13.47;100.00;100340.47;4456384;32;34391;-83
2022/11/01 11:14:40;;;;;;;;;;;;;;;13.18;100.00;100343.62;4449205;32;34727;-84
2022/11/01 11:20:44;;;;;;;;;;;;;;;13.75;100.00;100332.06;4451621;32;35128;-84
2022/11/01 11:23:43;;;;;;;;;;;;;;;13.76;100.00;100328.16;4451281;32;34571;-84
2022/11/01 11:26:37;;;;;;;;;;;;;;;13.27;100.00;100330.75;4438679;32;34029;-85
2022/11/01 11:29:44;;;;;;;;;;;;;;;12.79;100.00;100333.22;4449727;32;34431;-86
2022/11/01 11:32:42;;;;;;;;;;;;;;;13.10;100.00;100322.34;4431694;32;35184;-83
2022/11/01 11:35:36;;;;;;;;;;;;;;;13.84;100.00;100318.34;4450586;32;34771;-85
2022/11/01 11:38:41;;;;;;;;;;;;;;;13.82;100.00;100326.91;4453517;32;33387;-84
2022/11/01 11:41:37;;;;;;;;;;;;;;;13.84;100.00;100312.81;4453050;32;35058;-84
2022/11/01 11:44:32;;;;;;;;;;;;;;;13.79;100.00;100308.25;4453744;32;36117;-85
2022/11/01 11:47:27;;;;;;;;;;;;;;;13.39;100.00;100313.69;4462798;32;35752;-84
2022/11/01 11:50:22;;;;;;;;;;;;;;;13.59;100.00;100314.31;4465297;32;33659;-84
2022/11/01 11:53:23;;;;;;;;;;;;;;;14.18;100.00;100314.91;4462402;32;34139;-85
2022/11/01 11:56:13;;;;;;;;;;;;;;;14.29;100.00;100316.25;4452109;32;34914;-84
2022/11/01 11:59:04;;;;;;;;;;;;;;;14.14;100.00;100311.16;4449479;32;35583;-84
2022/11/01 12:01:57;;;;;;;;;;;;;;;14.25;100.00;100312.50;4453281;32;36258;-84
2022/11/01 12:04:54;;;;;;;;;;;;;;;14.66;98.60;100303.09;4453141;32;34981;-84
2022/11/01 12:07:49;;;;;;;;;;;;;;;14.42;98.78;100305.41;4463253;32;34650;-84
2022/11/01 12:10:49;;;;;;;;;;;;;;;14.52;98.76;100302.41;4451372;32;35628;-83
2022/11/01 12:13:40;;;;;;;;;;;;;;;14.29;100.00;100296.16;4453059;32;33990;-84
2022/11/01 12:16:39;;;;;;;;;;;;;;;14.04;100.00;100300.44;4463785;32;34884;-83
2022/11/01 12:22:46;;;;;;;;;;;;;;;13.80;100.00;100295.28;4463507;32;34915;-83
2022/11/01 12:25:34;;;;;;;;;;;;;;;14.31;100.00;100291.91;4458125;32;34078;-84
2022/11/01 12:28:25;;;;;;;;;;;;;;;14.59;100.00;100288.94;4447500;32;35729;-83
2022/11/01 12:31:17;;;;;;;;;;;;;;;13.86;100.00;100286.59;4451552;32;36368;-83
2022/11/01 12:34:17;;;;;;;;;;;;;;;13.30;100.00;100285.28;4462506;32;35089;-84
2022/11/01 12:37:06;;;;;;;;;;;;;;;13.93;100.00;100275.09;4465953;32;34370;-84
2022/11/01 12:40:18;;;;;;;;;;;;;;;14.36;100.00;100280.75;4454209;32;34060;-84
2022/11/01 12:43:11;;;;;;;;;;;;;;;14.49;100.00;100278.19;4441969;32;35238;-84
2022/11/01 12:46:00;;;;;;;;;;;;;;;13.84;100.00;100268.75;4463252;32;35753;-83
2022/11/01 12:48:51;;;;;;;;;;;;;;;13.89;100.00;100269.44;4450519;32;35018;-83
2022/11/01 12:54:44;;;;;;;;;;;;;;;14.14;100.00;100276.16;4454039;32;36203;-84
2022/11/01 12:57:37;;;;;;;;;;;;;;;14.32;100.00;100268.75;4451448;32;34789;-83
2022/11/01 13:00:27;;;;;;;;;;;;;;;14.82;97.77;100264.78;4443802;32;34526;-84
2022/11/01 13:03:22;;;;;;;;;;;;;;;14.09;100.00;100261.72;4450535;32;36662;-84
2022/11/01 13:06:27;;;;;;;;;;;;;;;14.24;100.00;100264.03;4452563;32;36361;-84
2022/11/01 13:09:35;;;;;;;;;;;;;;;14.59;99.63;100269.62;4460691;32;34550;-84
2022/11/01 13:12:32;;;;;;;;;;;;;;;14.90;95.87;100255.69;4452895;32;33737;-84
2022/11/01 13:15:30;;;;;;;;;;;;;;;14.36;98.86;100266.97;4464227;32;34640;-84
2022/11/01 13:18:32;;;;;;;;;;;;;;;13.96;100.00;100266.19;4468110;32;35223;-84
2022/11/01 13:21:39;;;;;;;;;;;;;;;14.48;100.00;100266.34;4478462;32;35691;-84
2022/11/01 13:24:30;;;;;;;;;;;;;;;14.57;100.00;100263.63;4479077;31;34123;-84
2022/11/01 13:27:25;;;;;;;;;;;;;;;14.61;98.93;100259.09;4479499;31;35947;-84
2022/11/01 13:30:17;;;;;;;;;;;;;;;14.50;99.39;100252.25;4462043;32;34824;-84
2022/11/01 13:33:12;;;;;;;;;;;;;;;14.43;100.00;100252.72;4468464;32;35121;-84
2022/11/01 13:36:10;;;;;;;;;;;;;;;14.92;97.41;100258.97;4468395;31;35204;-84
2022/11/01 13:39:11;;;;;;;;;;;;;;;14.84;97.90;100263.31;4468849;32;34888;-84
2022/11/01 13:41:57;;;;;;;;;;;;;;;14.56;99.24;100256.50;4478030;32;34549;-84
2022/11/01 13:45:03;;;;;;;;;;;;;;;14.51;99.21;100253.84;4479729;32;34899;-84
2022/11/01 13:48:07;;;;;;;;;;;;;;;14.75;98.06;100242.41;4477880;32;34032;-84
2022/11/01 13:51:06;;;;;;;;;;;;;;;14.82;96.51;100242.72;4480267;32;34511;-85
2022/11/01 13:54:10;;;;;;;;;;;;;;;14.79;95.91;100251.66;4475493;31;34906;-85
2022/11/01 13:56:57;;;;;;;;;;;;;;;14.79;96.03;100257.97;4463466;31;34624;-83
2022/11/01 13:59:58;;;;;;;;;;;;;;;13.14;100.00;100256.50;4456206;32;34130;-83
2022/11/01 14:02:58;;;;;;;;;;;;;;;13.93;100.00;100251.13;4462091;31;35845;-84
2022/11/01 14:05:45;;;;;;;;;;;;;;;14.12;100.00;100247.31;4467026;32;35280;-84
2022/11/01 14:11:43;;;;;;;;;;;;;;;13.65;100.00;100255.22;4474644;31;34122;-83
2022/11/01 14:14:30;;;;;;;;;;;;;;;13.90;100.00;100256.47;4476188;31;34931;-84
2022/11/01 14:17:25;;;;;;;;;;;;;;;13.93;100.00;100255.81;4475689;31;33799;-85
2022/11/01 14:20:20;;;;;;;;;;;;;;;13.61;100.00;100248.72;4478921;32;34712;-84
2022/11/01 14:23:28;;;;;;;;;;;;;;;13.89;100.00;100244.63;4466492;32;34053;-83
2022/11/01 14:26:19;;;;;;;;;;;;;;;13.88;100.00;100251.25;4475464;31;34425;-84
2022/11/01 14:29:13;;;;;;;;;;;;;;;12.37;100.00;100252.75;4479247;32;36135;-84
2022/11/01 14:32:05;;;;;;;;;;;;;;;13.34;100.00;100242.25;4466083;31;36307;-84
2022/11/01 14:35:14;;;;;;;;;;;;;;;14.12;100.00;100241.78;4475799;31;34199;-84
2022/11/01 14:38:13;;;;;;;;;;;;;;;13.45;100.00;100246.34;4464983;32;34911;-83
2022/11/01 14:41:06;;;;;;;;;;;;;;;13.82;100.00;100241.50;4467697;32;35405;-84
2022/11/01 14:44:04;;;;;;;;;;;;;;;13.15;100.00;100252.59;4467322;32;35243;-84
2022/11/01 14:46:56;;;;;;;;;;;;;;;13.99;100.00;100237.22;4466293;32;34779;-83
2022/11/01 14:49:54;;;;;;;;;;;;;;;14.46;98.95;100245.72;4464787;31;34755;-83
2022/11/01 14:55:49;;;;;;;;;;;;;;;13.73;100.00;100247.00;4467703;31;34844;-84
2022/11/01 14:58:38;;;;;;;;;;;;;;;13.72;100.00;100244.56;4465431;31;33781;-84
2022/11/01 15:01:25;;;;;;;;;;;;;;;13.14;100.00;100248.25;4466150;32;35812;-84
2022/11/01 15:04:28;;;;;;;;;;;;;;;13.30;100.00;100260.53;4460675;31;34932;-87
2022/11/01 15:13:21;;;;;;;;;;;;;;;11.35;100.00;100265.69;4456354;31;34899;-87
2022/11/01 15:16:22;;;;;;;;;;;;;;;11.52;100.00;100270.59;4455446;31;34469;-86
2022/11/01 15:19:13;;;;;;;;;;;;;;;11.50;100.00;100270.94;4450668;32;34884;-86
2022/11/01 15:22:04;;;;;;;;;;;;;;;10.88;100.00;100278.53;4452119;32;33636;-87